sensor_id;sensor_type;location;lat;lon;timestamp;P1;durP1;ratioP1;P2;durP2;ratioP2
59161;SDS011;44942;48.936;8.260;2023-04-01T00:00:20;7.27;;;3.93;;
59161;SDS011;44942;48.936;8.260;2023-04-01T00:05:20;7.20;;;3.77;;
59161;SDS011;44942;48.936;8.260;2023-04-01T00:10:21;7.83;;;3.47;;
59161;SDS011;44942;48.936;8.260;2023-04-01T00:15:21;8.00;;;3.87;;
59161;SDS011;44942;48.936;8.260;2023-04-01T00:20:22;8.13;;;3.88;;
59161;SDS011;44942;48.936;8.260;2023-04-01T00:25:23;7.13;;;3.63;;
59161;SDS011;44942;48.936;8.260;2023-04-01T00:30:24;9.52;;;3.88;;
59161;SDS011;44942;48.936;8.260;2023-04-01T00:35:24;6.80;;;3.23;;
59161;SDS011;44942;48.936;8.260;2023-04-01T00:45:36;8.77;;;3.87;;
59161;SDS011;44942;48.936;8.260;2023-04-01T00:50:38;7.88;;;3.55;;
59161;SDS011;44942;48.936;8.260;2023-04-01T00:55:44;6.72;;;3.28;;
59161;SDS011;44942;48.936;8.260;2023-04-01T01:00:51;7.18;;;3.35;;
59161;SDS011;44942;48.936;8.260;2023-04-01T01:06:06;9.07;;;3.50;;
59161;SDS011;44942;48.936;8.260;2023-04-01T01:11:37;7.10;;;3.13;;
59161;SDS011;44942;48.936;8.260;2023-04-01T01:16:43;7.20;;;3.22;;
59161;SDS011;44942;48.936;8.260;2023-04-01T01:21:58;6.72;;;3.20;;
59161;SDS011;44942;48.936;8.260;2023-04-01T01:27:22;7.22;;;3.25;;
59161;SDS011;44942;48.936;8.260;2023-04-01T01:37:42;3.83;;;2.00;;
59161;SDS011;44942;48.936;8.260;2023-04-01T01:42:46;3.75;;;1.90;;
59161;SDS011;44942;48.936;8.260;2023-04-01T01:47:51;4.35;;;1.88;;
59161;SDS011;44942;48.936;8.260;2023-04-01T01:53:00;3.72;;;1.85;;
59161;SDS011;44942;48.936;8.260;2023-04-01T01:58:18;3.63;;;1.60;;
59161;SDS011;44942;48.936;8.260;2023-04-01T02:03:23;3.63;;;1.83;;
59161;SDS011;44942;48.936;8.260;2023-04-01T02:08:31;4.35;;;1.83;;
59161;SDS011;44942;48.936;8.260;2023-04-01T02:13:50;4.15;;;1.63;;
59161;SDS011;44942;48.936;8.260;2023-04-01T02:18:53;3.53;;;1.92;;
59161;SDS011;44942;48.936;8.260;2023-04-01T02:23:56;3.50;;;1.83;;
59161;SDS011;44942;48.936;8.260;2023-04-01T02:28:58;3.30;;;2.00;;
59161;SDS011;44942;48.936;8.260;2023-04-01T02:34:02;5.25;;;1.98;;
59161;SDS011;44942;48.936;8.260;2023-04-01T02:39:03;3.58;;;1.80;;
59161;SDS011;44942;48.936;8.260;2023-04-01T02:44:05;4.28;;;2.00;;
59161;SDS011;44942;48.936;8.260;2023-04-01T02:49:07;5.20;;;2.00;;
59161;SDS011;44942;48.936;8.260;2023-04-01T02:54:08;4.05;;;1.90;;
59161;SDS011;44942;48.936;8.260;2023-04-01T02:59:08;3.37;;;1.60;;
59161;SDS011;44942;48.936;8.260;2023-04-01T03:04:09;4.03;;;1.80;;
59161;SDS011;44942;48.936;8.260;2023-04-01T03:09:10;3.40;;;2.00;;
59161;SDS011;44942;48.936;8.260;2023-04-01T03:14:10;3.90;;;1.97;;
59161;SDS011;44942;48.936;8.260;2023-04-01T03:19:11;2.97;;;1.83;;
59161;SDS011;44942;48.936;8.260;2023-04-01T03:24:11;3.20;;;1.73;;
59161;SDS011;44942;48.936;8.260;2023-04-01T03:29:12;2.85;;;1.77;;
59161;SDS011;44942;48.936;8.260;2023-04-01T03:34:15;3.40;;;1.60;;
59161;SDS011;44942;48.936;8.260;2023-04-01T03:39:16;3.57;;;1.63;;
59161;SDS011;44942;48.936;8.260;2023-04-01T03:44:18;2.90;;;1.55;;
59161;SDS011;44942;48.936;8.260;2023-04-01T03:49:19;4.47;;;1.63;;
59161;SDS011;44942;48.936;8.260;2023-04-01T03:54:19;4.53;;;2.10;;
59161;SDS011;44942;48.936;8.260;2023-04-01T03:59:20;3.35;;;1.60;;
59161;SDS011;44942;48.936;8.260;2023-04-01T04:04:21;3.83;;;1.55;;
59161;SDS011;44942;48.936;8.260;2023-04-01T04:09:22;4.03;;;1.80;;
59161;SDS011;44942;48.936;8.260;2023-04-01T04:14:23;3.10;;;1.70;;
59161;SDS011;44942;48.936;8.260;2023-04-01T04:19:23;4.28;;;1.73;;
59161;SDS011;44942;48.936;8.260;2023-04-01T04:24:24;2.07;;;1.40;;
59161;SDS011;44942;48.936;8.260;2023-04-01T04:29:25;2.33;;;1.40;;
59161;SDS011;44942;48.936;8.260;2023-04-01T04:34:25;3.07;;;1.60;;
59161;SDS011;44942;48.936;8.260;2023-04-01T04:39:26;2.90;;;1.50;;
59161;SDS011;44942;48.936;8.260;2023-04-01T04:44:26;2.43;;;1.70;;
59161;SDS011;44942;48.936;8.260;2023-04-01T04:49:27;2.27;;;1.30;;
59161;SDS011;44942;48.936;8.260;2023-04-01T04:54:27;2.93;;;1.50;;
59161;SDS011;44942;48.936;8.260;2023-04-01T04:59:30;2.53;;;1.40;;
59161;SDS011;44942;48.936;8.260;2023-04-01T05:04:33;3.17;;;1.60;;
59161;SDS011;44942;48.936;8.260;2023-04-01T05:09:36;2.70;;;1.50;;
59161;SDS011;44942;48.936;8.260;2023-04-01T05:14:36;5.73;;;1.77;;
59161;SDS011;44942;48.936;8.260;2023-04-01T05:19:37;3.40;;;1.43;;
59161;SDS011;44942;48.936;8.260;2023-04-01T05:24:38;3.17;;;1.30;;
59161;SDS011;44942;48.936;8.260;2023-04-01T05:29:39;2.67;;;1.10;;
59161;SDS011;44942;48.936;8.260;2023-04-01T05:34:39;3.03;;;1.20;;
59161;SDS011;44942;48.936;8.260;2023-04-01T05:39:40;2.10;;;1.33;;
59161;SDS011;44942;48.936;8.260;2023-04-01T05:44:41;2.93;;;1.47;;
59161;SDS011;44942;48.936;8.260;2023-04-01T05:49:41;2.67;;;1.37;;
59161;SDS011;44942;48.936;8.260;2023-04-01T05:54:42;2.33;;;1.23;;
59161;SDS011;44942;48.936;8.260;2023-04-01T05:59:42;2.70;;;1.40;;
59161;SDS011;44942;48.936;8.260;2023-04-01T06:04:43;2.42;;;1.30;;
59161;SDS011;44942;48.936;8.260;2023-04-01T06:09:44;1.73;;;1.13;;
59161;SDS011;44942;48.936;8.260;2023-04-01T06:20:20;1.90;;;1.13;;
59161;SDS011;44942;48.936;8.260;2023-04-01T06:25:43;1.80;;;1.00;;
59161;SDS011;44942;48.936;8.260;2023-04-01T06:31:16;2.97;;;1.47;;
59161;SDS011;44942;48.936;8.260;2023-04-01T06:47:39;8.88;;;1.38;;
59161;SDS011;44942;48.936;8.260;2023-04-01T06:53:00;2.47;;;1.20;;
59161;SDS011;44942;48.936;8.260;2023-04-01T07:03:34;2.22;;;0.98;;
59161;SDS011;44942;48.936;8.260;2023-04-01T07:08:40;1.55;;;1.02;;
59161;SDS011;44942;48.936;8.260;2023-04-01T07:13:45;3.53;;;1.27;;
59161;SDS011;44942;48.936;8.260;2023-04-01T07:24:32;37.57;;;15.27;;
59161;SDS011;44942;48.936;8.260;2023-04-01T07:29:39;50.10;;;17.92;;
59161;SDS011;44942;48.936;8.260;2023-04-01T07:34:43;47.25;;;17.52;;
59161;SDS011;44942;48.936;8.260;2023-04-01T07:40:04;48.80;;;18.90;;
59161;SDS011;44942;48.936;8.260;2023-04-01T07:45:38;52.58;;;18.63;;
59161;SDS011;44942;48.936;8.260;2023-04-01T07:50:59;50.03;;;19.73;;
59161;SDS011;44942;48.936;8.260;2023-04-01T07:56:09;48.55;;;19.38;;
59161;SDS011;44942;48.936;8.260;2023-04-01T08:06:40;41.65;;;18.90;;
59161;SDS011;44942;48.936;8.260;2023-04-01T08:22:19;38.63;;;17.02;;
59161;SDS011;44942;48.936;8.260;2023-04-01T08:27:46;34.10;;;16.13;;
59161;SDS011;44942;48.936;8.260;2023-04-01T08:32:56;30.45;;;13.25;;
59161;SDS011;44942;48.936;8.260;2023-04-01T08:38:01;23.60;;;11.00;;
59161;SDS011;44942;48.936;8.260;2023-04-01T08:49:01;29.25;;;13.40;;
59161;SDS011;44942;48.936;8.260;2023-04-01T08:54:33;30.00;;;13.70;;
59161;SDS011;44942;48.936;8.260;2023-04-01T09:00:14;30.45;;;13.27;;
59161;SDS011;44942;48.936;8.260;2023-04-01T09:36:45;25.80;;;12.23;;
59161;SDS011;44942;48.936;8.260;2023-04-01T09:53:01;36.60;;;11.75;;
59161;SDS011;44942;48.936;8.260;2023-04-01T09:58:31;42.22;;;12.13;;
59161;SDS011;44942;48.936;8.260;2023-04-01T10:04:16;47.17;;;11.48;;
59161;SDS011;44942;48.936;8.260;2023-04-01T10:14:59;26.00;;;11.40;;
59161;SDS011;44942;48.936;8.260;2023-04-01T10:31:14;22.23;;;8.65;;
59161;SDS011;44942;48.936;8.260;2023-04-01T10:57:50;15.15;;;7.50;;
59161;SDS011;44942;48.936;8.260;2023-04-01T11:24:49;14.27;;;7.55;;
59161;SDS011;44942;48.936;8.260;2023-04-01T11:46:31;13.40;;;6.80;;
59161;SDS011;44942;48.936;8.260;2023-04-01T11:58:08;16.23;;;7.30;;
59161;SDS011;44942;48.936;8.260;2023-04-01T12:13:33;51.45;;;9.35;;
59161;SDS011;44942;48.936;8.260;2023-04-01T12:40:39;16.70;;;5.82;;
59161;SDS011;44942;48.936;8.260;2023-04-01T12:46:05;18.08;;;6.35;;
59161;SDS011;44942;48.936;8.260;2023-04-01T12:57:19;17.25;;;6.03;;
59161;SDS011;44942;48.936;8.260;2023-04-01T13:12:59;14.63;;;5.97;;
59161;SDS011;44942;48.936;8.260;2023-04-01T13:23:55;12.65;;;5.70;;
59161;SDS011;44942;48.936;8.260;2023-04-01T13:29:14;16.20;;;5.88;;
59161;SDS011;44942;48.936;8.260;2023-04-01T13:40:12;10.95;;;5.15;;
59161;SDS011;44942;48.936;8.260;2023-04-01T13:45:42;12.50;;;5.38;;
59161;SDS011;44942;48.936;8.260;2023-04-01T13:57:00;10.95;;;5.45;;
59161;SDS011;44942;48.936;8.260;2023-04-01T14:07:49;12.60;;;5.20;;
59161;SDS011;44942;48.936;8.260;2023-04-01T14:18:25;10.50;;;4.50;;
59161;SDS011;44942;48.936;8.260;2023-04-01T14:23:42;11.40;;;4.97;;
59161;SDS011;44942;48.936;8.260;2023-04-01T14:50:11;9.50;;;4.20;;
59161;SDS011;44942;48.936;8.260;2023-04-01T15:00:57;7.95;;;4.00;;
59161;SDS011;44942;48.936;8.260;2023-04-01T15:16:44;7.50;;;4.00;;
59161;SDS011;44942;48.936;8.260;2023-04-01T15:48:25;9.15;;;4.22;;
59161;SDS011;44942;48.936;8.260;2023-04-01T15:53:37;19.65;;;3.88;;
59161;SDS011;44942;48.936;8.260;2023-04-01T16:20:19;7.32;;;3.65;;
59161;SDS011;44942;48.936;8.260;2023-04-01T16:25:37;10.02;;;3.67;;
59161;SDS011;44942;48.936;8.260;2023-04-01T16:30:48;11.10;;;3.97;;
59161;SDS011;44942;48.936;8.260;2023-04-01T16:35:59;10.15;;;4.07;;
59161;SDS011;44942;48.936;8.260;2023-04-01T16:41:14;12.25;;;4.55;;
59161;SDS011;44942;48.936;8.260;2023-04-01T16:46:35;9.63;;;3.45;;
59161;SDS011;44942;48.936;8.260;2023-04-01T16:57:43;6.90;;;3.60;;
59161;SDS011;44942;48.936;8.260;2023-04-01T17:02:31;7.72;;;3.70;;
59161;SDS011;44942;48.936;8.260;2023-04-01T17:13:12;7.50;;;3.33;;
59161;SDS011;44942;48.936;8.260;2023-04-01T17:18:50;13.05;;;3.72;;
59161;SDS011;44942;48.936;8.260;2023-04-01T17:40:15;9.98;;;3.50;;
59161;SDS011;44942;48.936;8.260;2023-04-01T17:45:33;16.15;;;3.67;;
59161;SDS011;44942;48.936;8.260;2023-04-01T18:01:24;13.40;;;3.67;;
59161;SDS011;44942;48.936;8.260;2023-04-01T18:11:59;12.15;;;3.42;;
59161;SDS011;44942;48.936;8.260;2023-04-01T18:17:18;9.75;;;3.63;;
59161;SDS011;44942;48.936;8.260;2023-04-01T18:22:28;11.23;;;3.55;;
59161;SDS011;44942;48.936;8.260;2023-04-01T18:27:38;10.25;;;3.80;;
59161;SDS011;44942;48.936;8.260;2023-04-01T18:32:58;9.23;;;3.58;;
59161;SDS011;44942;48.936;8.260;2023-04-01T18:48:40;12.70;;;5.72;;
59161;SDS011;44942;48.936;8.260;2023-04-01T18:53:57;14.77;;;6.57;;
59161;SDS011;44942;48.936;8.260;2023-04-01T18:59:12;12.80;;;6.63;;
59161;SDS011;44942;48.936;8.260;2023-04-01T19:09:43;12.00;;;7.13;;
59161;SDS011;44942;48.936;8.260;2023-04-01T19:14:51;15.30;;;7.63;;
59161;SDS011;44942;48.936;8.260;2023-04-01T19:19:56;11.57;;;6.63;;
59161;SDS011;44942;48.936;8.260;2023-04-01T19:51:37;12.52;;;6.10;;
59161;SDS011;44942;48.936;8.260;2023-04-01T19:57:00;14.85;;;6.28;;
59161;SDS011;44942;48.936;8.260;2023-04-01T20:07:43;15.75;;;6.32;;
59161;SDS011;44942;48.936;8.260;2023-04-01T20:18:01;9.88;;;5.70;;
59161;SDS011;44942;48.936;8.260;2023-04-01T20:23:25;9.60;;;5.40;;
59161;SDS011;44942;48.936;8.260;2023-04-01T20:34:14;6.70;;;4.10;;
59161;SDS011;44942;48.936;8.260;2023-04-01T20:50:28;6.80;;;3.95;;
59161;SDS011;44942;48.936;8.260;2023-04-01T21:01:13;6.35;;;4.10;;
59161;SDS011;44942;48.936;8.260;2023-04-01T21:11:52;5.70;;;3.75;;
59161;SDS011;44942;48.936;8.260;2023-04-01T21:17:05;5.50;;;3.88;;
59161;SDS011;44942;48.936;8.260;2023-04-01T21:28:09;4.60;;;3.45;;
59161;SDS011;44942;48.936;8.260;2023-04-01T21:38:25;4.05;;;2.58;;
59161;SDS011;44942;48.936;8.260;2023-04-01T21:48:58;5.60;;;3.50;;
59161;SDS011;44942;48.936;8.260;2023-04-01T21:54:18;5.93;;;3.57;;
59161;SDS011;44942;48.936;8.260;2023-04-01T22:15:27;4.90;;;3.08;;
59161;SDS011;44942;48.936;8.260;2023-04-01T22:20:48;4.85;;;3.08;;
59161;SDS011;44942;48.936;8.260;2023-04-01T22:26:15;5.07;;;2.80;;
59161;SDS011;44942;48.936;8.260;2023-04-01T22:31:35;6.15;;;3.20;;
59161;SDS011;44942;48.936;8.260;2023-04-01T22:37:02;4.57;;;3.05;;
59161;SDS011;44942;48.936;8.260;2023-04-01T22:42:21;4.28;;;2.92;;
59161;SDS011;44942;48.936;8.260;2023-04-01T22:58:38;4.95;;;2.90;;
59161;SDS011;44942;48.936;8.260;2023-04-01T23:03:46;6.15;;;3.33;;
59161;SDS011;44942;48.936;8.260;2023-04-01T23:19:23;4.70;;;2.88;;
59161;SDS011;44942;48.936;8.260;2023-04-01T23:29:44;3.15;;;2.30;;
59161;SDS011;44942;48.936;8.260;2023-04-01T23:34:48;3.90;;;2.23;;
59161;SDS011;44942;48.936;8.260;2023-04-01T23:39:54;4.32;;;2.40;;
59161;SDS011;44942;48.936;8.260;2023-04-01T23:44:58;2.90;;;2.05;;
59161;SDS011;44942;48.936;8.260;2023-04-01T23:50:03;3.85;;;2.10;;
59161;SDS011;44942;48.936;8.260;2023-04-01T23:55:22;3.63;;;2.28;;
